ADDS METAR Data

Data at: 1824 UTC 20 Jul 2018

METAR for:KBID (Block Island Arpt, RI, US)
Text:KBID 201756Z AUTO 17009KT 10SM CLR 24/17 A3019 RMK AO2 SLP224 T02440172 10256 20222 58005
Temperature: 24.4°C ( 76°F)
Dewpoint: 17.2°C ( 63°F) [RH = 64%]
Pressure (altimeter):30.19 inches Hg (1022.4 mb) [Sea level pressure: 1022.4 mb]
Winds:from the S (170 degrees) at 10 MPH (9 knots; 4.6 m/s)
Visibility:10 or more sm (16+ km)
Ceiling:at least 12,000 feet AGL
Clouds:sky clear below 12,000 feet AGL
QC Flag:automated observation with no human augmentation